Terminal Aerodrome Forecast
Issued by NWS Tulsa, OK

Home | Current Version | Previous Version | Text Only | Print | Product List | Glossary On
Versions: 1 2 3 4 5 6 7 8 9 10 11 12 13 14 15 16
817
FTUS44 KTSA 092320
TAFTUL
TAF
KTUL 092320Z 1000/1024 34018G25KT P6SM FEW080 BKN250
     FM100200 35006KT P6SM SCT250
     FM100600 VRB04KT P6SM BKN120
     FM101500 18012G18KT P6SM SCT250=

USA.gov is the U.S. government's official web portal to all federal, state and local government web resources and services.